createdAt,value
2018-06-14T00:01:05.483Z,0.63
2018-06-14T00:03:33.828Z,0.80
2018-06-14T00:06:02.128Z,0.63
2018-06-14T00:08:30.489Z,1.00
2018-06-14T00:10:58.721Z,2.10
2018-06-14T00:13:26.977Z,2.40
2018-06-14T00:15:55.293Z,0.93
2018-06-14T00:18:23.741Z,1.00
2018-06-14T00:20:52.221Z,4.23
2018-06-14T00:23:20.667Z,2.03
2018-06-14T00:25:49.001Z,2.30
2018-06-14T00:28:17.326Z,2.50
2018-06-14T00:30:45.570Z,2.40
2018-06-14T00:33:13.843Z,0.80
2018-06-14T00:35:42.060Z,1.80
2018-06-14T00:38:10.373Z,1.00
2018-06-14T00:40:38.689Z,1.70
2018-06-14T00:43:07.014Z,1.63
2018-06-14T00:45:35.386Z,0.90
2018-06-14T00:48:03.679Z,0.60
2018-06-14T00:50:32.014Z,4.17
2018-06-14T00:53:00.343Z,0.73
2018-06-14T00:55:28.609Z,1.17
2018-06-14T00:57:56.851Z,1.53
2018-06-14T01:00:25.121Z,4.90
2018-06-14T01:02:53.483Z,0.80
2018-06-14T01:05:22.184Z,1.57
2018-06-14T01:07:50.471Z,2.90
2018-06-14T01:10:18.688Z,0.77
2018-06-14T01:12:46.930Z,1.33
2018-06-14T01:15:15.160Z,1.37
2018-06-14T01:17:43.452Z,0.73
2018-06-14T01:20:11.738Z,0.80
2018-06-14T01:22:40.151Z,1.00
2018-06-14T01:25:08.420Z,2.33
2018-06-14T01:27:36.629Z,0.87
2018-06-14T01:30:05.352Z,1.20
2018-06-14T01:32:33.577Z,0.70
2018-06-14T01:35:01.856Z,1.80
2018-06-14T01:37:41.323Z,4.27
2018-06-14T01:40:09.606Z,1.40
2018-06-14T01:42:37.946Z,3.50
2018-06-14T01:45:06.464Z,0.97
2018-06-14T01:47:34.744Z,1.50
2018-06-14T01:50:03.088Z,1.73
2018-06-14T01:52:31.348Z,1.00
2018-06-14T01:54:59.658Z,1.50
2018-06-14T01:57:27.994Z,1.57
2018-06-14T01:59:56.309Z,0.60
2018-06-14T02:02:24.590Z,0.90
2018-06-14T02:04:52.904Z,0.93
2018-06-14T02:07:21.446Z,2.10
2018-06-14T02:09:49.748Z,2.30
2018-06-14T02:12:18.176Z,3.30
2018-06-14T02:14:46.608Z,1.27
2018-06-14T02:17:14.927Z,0.97
2018-06-14T02:19:43.180Z,1.30
2018-06-14T02:22:11.393Z,1.07
2018-06-14T02:24:39.680Z,0.80
2018-06-14T02:27:07.934Z,1.70
2018-06-14T02:29:36.204Z,2.10
2018-06-14T02:32:04.447Z,1.33
2018-06-14T02:34:32.713Z,1.33
2018-06-14T02:37:00.977Z,1.10
2018-06-14T02:39:29.250Z,0.80
2018-06-14T02:41:57.591Z,1.50
2018-06-14T02:44:26.665Z,1.97
2018-06-14T02:46:54.904Z,0.80
2018-06-14T02:49:23.155Z,0.73
2018-06-14T02:51:51.415Z,1.37
2018-06-14T02:54:19.660Z,2.50
2018-06-14T02:56:47.924Z,0.83
2018-06-14T02:59:16.197Z,1.20
2018-06-14T03:01:44.503Z,1.10
2018-06-14T03:04:12.756Z,7.37
2018-06-14T03:06:40.985Z,2.60
2018-06-14T03:09:10.022Z,0.83
2018-06-14T03:11:38.273Z,1.33
2018-06-14T03:14:06.699Z,1.27
2018-06-14T03:16:35.066Z,0.90
2018-06-14T03:19:03.296Z,0.83
2018-06-14T03:21:31.539Z,1.33
2018-06-14T03:23:59.837Z,2.60
2018-06-14T03:26:28.205Z,1.10
2018-06-14T03:28:57.153Z,1.10
2018-06-14T03:31:25.504Z,1.20
2018-06-14T03:33:53.861Z,1.20
2018-06-14T03:36:22.153Z,0.97
2018-06-14T03:38:50.384Z,1.27
2018-06-14T03:41:18.657Z,0.83
2018-06-14T03:43:46.909Z,0.93
2018-06-14T03:46:15.326Z,0.80
2018-06-14T03:48:43.628Z,0.90
2018-06-14T03:51:11.936Z,1.33
2018-06-14T03:53:40.328Z,1.37
2018-06-14T03:56:08.590Z,1.23
2018-06-14T03:58:36.897Z,1.77
2018-06-14T04:01:05.114Z,0.80
2018-06-14T04:03:33.403Z,0.93
2018-06-14T04:06:01.669Z,1.03
2018-06-14T04:08:29.916Z,1.57
2018-06-14T04:10:58.170Z,2.50
2018-06-14T04:13:26.441Z,1.63
2018-06-14T04:15:54.687Z,3.03
2018-06-14T04:18:22.954Z,2.20
2018-06-14T04:20:51.233Z,1.03
2018-06-14T04:23:19.481Z,0.93
2018-06-14T04:25:47.764Z,0.80
2018-06-14T04:28:16.168Z,1.10
2018-06-14T04:30:44.470Z,1.10
2018-06-14T04:33:13.063Z,2.03
2018-06-14T04:35:41.347Z,2.20
2018-06-14T04:38:09.644Z,3.90
2018-06-14T04:40:38.009Z,0.90
2018-06-14T04:43:06.387Z,1.13
2018-06-14T04:45:34.772Z,1.10
2018-06-14T04:48:03.008Z,0.83
2018-06-14T04:50:31.224Z,3.33
2018-06-14T04:52:59.506Z,1.43
2018-06-14T04:55:26.819Z,1.50
2018-06-14T04:57:55.075Z,2.10
2018-06-14T05:00:23.360Z,1.70
2018-06-14T05:02:51.660Z,1.10
2018-06-14T05:05:20.508Z,2.37
2018-06-14T05:07:48.795Z,2.23
2018-06-14T05:10:17.582Z,1.23
2018-06-14T05:12:46.393Z,3.53
2018-06-14T05:15:14.689Z,2.67
2018-06-14T05:17:42.925Z,2.10
2018-06-14T05:20:11.199Z,3.30
2018-06-14T05:22:39.666Z,1.17
2018-06-14T05:25:07.960Z,1.13
2018-06-14T05:27:36.183Z,1.00
2018-06-14T05:30:05.294Z,1.10
2018-06-14T05:32:33.599Z,1.00
2018-06-14T05:35:01.923Z,1.07
2018-06-14T05:37:30.140Z,0.97
2018-06-14T05:39:59.131Z,3.70
2018-06-14T05:42:27.540Z,3.87
2018-06-14T05:44:56.160Z,1.10
2018-06-14T05:47:24.514Z,0.83
2018-06-14T05:49:52.774Z,1.47
2018-06-14T05:52:21.133Z,0.93
2018-06-14T05:54:49.401Z,1.23
2018-06-14T05:57:17.728Z,1.67
2018-06-14T05:59:45.947Z,1.93
2018-06-14T06:02:14.255Z,1.10
2018-06-14T06:04:42.600Z,0.77
2018-06-14T06:07:10.819Z,1.73
2018-06-14T06:09:39.084Z,1.10
2018-06-14T06:12:07.400Z,1.90
2018-06-14T06:14:35.707Z,0.93
2018-06-14T06:17:03.961Z,0.80
2018-06-14T06:19:32.258Z,3.77
2018-06-14T06:22:00.491Z,1.43
2018-06-14T06:24:28.733Z,1.07
2018-06-14T06:26:56.979Z,1.80
2018-06-14T06:29:25.247Z,1.20
2018-06-14T06:31:53.484Z,1.43
2018-06-14T06:34:21.778Z,0.80
2018-06-14T06:36:50.501Z,1.43
2018-06-14T06:39:18.772Z,0.97
2018-06-14T06:41:47.011Z,1.87
2018-06-14T06:44:15.245Z,2.23
2018-06-14T06:46:43.506Z,2.83
2018-06-14T06:49:11.748Z,1.03
2018-06-14T06:51:39.977Z,2.27
2018-06-14T06:54:08.233Z,3.30
2018-06-14T06:56:36.476Z,6.47
2018-06-14T06:59:04.837Z,1.03
2018-06-14T07:01:33.048Z,1.63
2018-06-14T07:04:01.317Z,1.67
2018-06-14T07:06:29.649Z,1.50
2018-06-14T07:08:57.923Z,1.40
2018-06-14T07:11:26.265Z,1.43
2018-06-14T07:13:54.553Z,1.50
2018-06-14T07:16:22.823Z,1.53
2018-06-14T07:18:51.069Z,1.70
2018-06-14T07:21:19.926Z,3.53
2018-06-14T07:23:48.197Z,2.03
2018-06-14T07:26:16.468Z,1.40
2018-06-14T07:28:44.733Z,1.87
2018-06-14T07:31:12.962Z,1.20
2018-06-14T07:33:41.183Z,2.17
2018-06-14T07:36:09.474Z,1.07
2018-06-14T07:38:37.704Z,1.40
2018-06-14T07:41:05.939Z,2.30
2018-06-14T07:43:34.175Z,1.60
2018-06-14T07:46:02.437Z,1.77
2018-06-14T07:48:30.702Z,1.95
2018-06-14T07:50:59.046Z,1.57
2018-06-14T07:53:27.275Z,1.87
2018-06-14T07:55:55.683Z,2.83
2018-06-14T07:58:23.978Z,2.37
2018-06-14T08:00:52.663Z,2.97
2018-06-14T08:03:20.907Z,2.63
2018-06-14T08:05:49.161Z,1.92
2018-06-14T08:08:17.404Z,4.50
2018-06-14T08:10:45.697Z,2.23
2018-06-14T08:13:14.049Z,1.70
2018-06-14T08:15:42.311Z,1.60
2018-06-14T08:18:10.559Z,1.55
2018-06-14T08:20:38.845Z,1.90
2018-06-14T08:23:07.069Z,1.17
2018-06-14T08:25:35.324Z,3.83
2018-06-14T08:28:03.552Z,8.18
2018-06-14T08:30:31.850Z,3.52
2018-06-14T08:33:00.115Z,1.47
2018-06-14T08:35:28.335Z,1.65
2018-06-14T08:37:56.620Z,2.20
2018-06-14T08:40:25.034Z,1.98
2018-06-14T08:42:53.379Z,1.80
2018-06-14T08:45:21.666Z,4.00
2018-06-14T08:47:50.289Z,4.20
2018-06-14T08:50:18.527Z,1.45
2018-06-14T08:52:46.836Z,4.33
2018-06-14T08:55:15.047Z,2.37
2018-06-14T08:57:43.266Z,1.65
2018-06-14T09:00:11.497Z,1.67
2018-06-14T09:02:39.731Z,2.95
2018-06-14T09:05:08.027Z,1.92
2018-06-14T09:07:36.330Z,2.12
2018-06-14T09:10:04.654Z,6.25
2018-06-14T09:12:32.907Z,2.20
2018-06-14T09:15:01.152Z,1.27
2018-06-14T09:17:29.379Z,2.02
2018-06-14T09:19:57.613Z,1.60
2018-06-14T09:22:25.839Z,1.25
2018-06-14T09:24:54.193Z,1.62
2018-06-14T09:27:22.459Z,1.90
2018-06-14T09:29:50.742Z,2.15
2018-06-14T09:32:18.907Z,2.85
2018-06-14T09:34:47.162Z,1.92
2018-06-14T09:37:15.564Z,4.00
2018-06-14T09:39:43.818Z,1.92
2018-06-14T09:42:12.002Z,2.72
2018-06-14T09:44:40.216Z,2.17
2018-06-14T09:47:08.420Z,2.05
2018-06-14T09:49:36.679Z,2.65
2018-06-14T09:52:04.889Z,2.10
2018-06-14T09:54:33.122Z,2.25
2018-06-14T09:57:01.333Z,2.58
2018-06-14T09:59:29.592Z,1.85
2018-06-14T10:01:57.815Z,1.67
2018-06-14T10:04:26.182Z,3.05
2018-06-14T10:06:54.404Z,4.12
2018-06-14T10:09:22.648Z,1.60
2018-06-14T10:11:50.896Z,1.57
2018-06-14T10:14:19.096Z,2.30
2018-06-14T10:16:47.315Z,1.75
2018-06-14T10:19:15.521Z,1.50
2018-06-14T10:21:44.441Z,1.75
2018-06-14T10:24:12.654Z,1.70
2018-06-14T10:26:41.078Z,2.75
2018-06-14T10:29:09.369Z,1.45
2018-06-14T10:31:37.595Z,1.40
2018-06-14T10:34:06.072Z,2.80
2018-06-14T10:36:34.321Z,1.32
2018-06-14T10:39:02.544Z,1.98
2018-06-14T10:41:30.867Z,11.57
2018-06-14T10:43:59.112Z,1.65
2018-06-14T10:46:27.320Z,1.45
2018-06-14T10:48:55.697Z,1.80
2018-06-14T10:51:23.915Z,1.67
2018-06-14T10:53:52.163Z,4.00
2018-06-14T10:56:20.408Z,2.27
2018-06-14T10:58:48.649Z,1.50
2018-06-14T11:01:16.948Z,1.85
2018-06-14T11:03:45.210Z,2.27
2018-06-14T11:06:13.465Z,3.42
2018-06-14T11:08:42.510Z,3.02
2018-06-14T11:11:10.812Z,2.12
2018-06-14T11:13:39.003Z,2.42
2018-06-14T11:16:07.240Z,1.67
2018-06-14T11:18:36.286Z,1.85
2018-06-14T11:21:04.659Z,2.33
2018-06-14T11:23:32.874Z,3.70
2018-06-14T11:26:01.116Z,1.67
2018-06-14T11:28:29.340Z,3.00
2018-06-14T11:30:57.600Z,1.65
2018-06-14T11:33:25.848Z,1.35
2018-06-14T11:35:54.180Z,2.80
2018-06-14T11:38:22.418Z,1.95
2018-06-14T11:40:50.713Z,4.03
2018-06-14T11:43:18.947Z,1.05
2018-06-14T11:45:47.164Z,0.98
2018-06-14T11:48:15.452Z,2.05
2018-06-14T11:50:44.425Z,2.45
2018-06-14T11:53:12.736Z,3.05
2018-06-14T11:55:40.968Z,3.25
2018-06-14T11:58:09.220Z,1.37
2018-06-14T12:00:37.481Z,1.17
2018-06-14T12:03:05.849Z,1.47
2018-06-14T12:05:34.147Z,1.35
2018-06-14T12:08:02.384Z,1.20
2018-06-14T12:10:30.613Z,1.10
2018-06-14T12:12:58.875Z,1.15
2018-06-14T12:15:27.097Z,1.25
2018-06-14T12:17:55.356Z,1.02
2018-06-14T12:20:23.582Z,1.22
2018-06-14T12:22:51.806Z,1.37
2018-06-14T12:25:20.136Z,2.95
2018-06-14T12:27:48.377Z,1.10
2018-06-14T12:30:16.597Z,2.85
2018-06-14T12:32:44.840Z,1.20
2018-06-14T12:35:13.091Z,2.75
2018-06-14T12:37:41.372Z,1.82
2018-06-14T12:40:09.576Z,1.60
2018-06-14T12:42:37.828Z,5.28
2018-06-14T12:45:06.052Z,2.50
2018-06-14T12:47:34.372Z,1.62
2018-06-14T12:50:02.585Z,4.15
2018-06-14T12:52:30.837Z,2.83
2018-06-14T12:54:59.072Z,1.35
2018-06-14T12:57:27.334Z,1.62
2018-06-14T12:59:55.602Z,2.00
2018-06-14T13:02:23.830Z,1.10
2018-06-14T13:04:52.050Z,3.55
2018-06-14T13:07:20.329Z,2.95
2018-06-14T13:09:48.562Z,1.10
2018-06-14T13:12:16.841Z,1.47
2018-06-14T13:14:45.080Z,1.72
2018-06-14T13:17:13.329Z,1.10
2018-06-14T13:19:41.629Z,1.30
2018-06-14T13:22:09.910Z,1.37
2018-06-14T13:24:40.840Z,2.50
2018-06-14T13:27:09.374Z,1.67
2018-06-14T13:29:37.592Z,2.05
2018-06-14T13:32:05.825Z,2.62
2018-06-14T13:34:34.495Z,2.42
2018-06-14T13:37:02.892Z,1.12
2018-06-14T13:39:31.232Z,1.20
2018-06-14T13:41:59.502Z,1.70
2018-06-14T13:44:27.742Z,1.42
2018-06-14T13:46:56.101Z,1.22
2018-06-14T13:49:24.448Z,1.72
2018-06-14T13:51:52.746Z,3.35
2018-06-14T13:54:21.003Z,3.75
2018-06-14T13:56:49.249Z,1.22
2018-06-14T13:59:17.511Z,1.00
2018-06-14T14:01:45.705Z,1.20
2018-06-14T14:04:13.976Z,1.10
2018-06-14T14:06:42.212Z,1.67
2018-06-14T14:09:11.825Z,2.08
2018-06-14T14:11:40.289Z,1.20
2018-06-14T14:14:08.564Z,1.37
2018-06-14T14:16:36.930Z,2.15
2018-06-14T14:19:05.207Z,1.10
2018-06-14T14:21:33.441Z,1.17
2018-06-14T14:24:01.725Z,1.37
2018-06-14T14:26:29.972Z,1.57
2018-06-14T14:28:58.234Z,1.40
2018-06-14T14:31:26.533Z,1.30
2018-06-14T14:33:54.856Z,1.05
2018-06-14T14:36:23.082Z,1.07
2018-06-14T14:38:52.117Z,1.10
2018-06-14T14:41:20.488Z,2.08
2018-06-14T14:43:48.827Z,1.20
2018-06-14T14:46:17.045Z,3.25
2018-06-14T14:48:45.269Z,1.50
2018-06-14T14:51:13.641Z,1.98
2018-06-14T14:53:41.911Z,0.90
2018-06-14T14:56:10.173Z,1.52
2018-06-14T14:58:38.516Z,1.20
2018-06-14T15:01:06.742Z,1.75
2018-06-14T15:03:34.971Z,1.35
2018-06-14T15:06:03.237Z,1.40
2018-06-14T15:08:31.610Z,1.55
2018-06-14T15:10:59.848Z,1.15
2018-06-14T15:13:28.204Z,1.35
2018-06-14T15:15:56.477Z,1.45
2018-06-14T15:18:24.782Z,1.10
2018-06-14T15:20:53.053Z,2.12
2018-06-14T15:23:21.378Z,1.20
2018-06-14T15:25:49.721Z,1.60
2018-06-14T15:28:18.168Z,2.45
2018-06-14T15:30:46.391Z,1.50
2018-06-14T15:33:14.685Z,1.20
2018-06-14T15:35:42.943Z,1.32
2018-06-14T15:38:11.205Z,1.65
2018-06-14T15:40:39.419Z,1.00
2018-06-14T15:43:07.694Z,1.15
2018-06-14T15:45:35.944Z,1.72
2018-06-14T15:48:04.304Z,1.35
2018-06-14T15:50:32.556Z,5.20
2018-06-14T15:53:00.837Z,2.08
2018-06-14T15:56:12.631Z,1.60
2018-06-14T15:58:41.056Z,2.02
2018-06-14T16:01:09.846Z,3.58
2018-06-14T16:03:38.195Z,1.30
2018-06-14T16:06:06.452Z,1.50
2018-06-14T16:08:34.776Z,1.22
2018-06-14T16:11:03.028Z,1.17
2018-06-14T16:13:31.374Z,1.72
2018-06-14T16:15:59.655Z,0.98
2018-06-14T16:18:27.931Z,1.40
2018-06-14T16:20:56.321Z,1.27
2018-06-14T16:23:24.613Z,1.90
2018-06-14T16:25:52.825Z,1.60
2018-06-14T16:28:21.309Z,1.12
2018-06-14T16:30:49.570Z,1.17
2018-06-14T16:33:17.840Z,1.57
2018-06-14T16:35:46.153Z,1.20
2018-06-14T16:38:14.400Z,1.50
2018-06-14T16:40:42.668Z,1.98
2018-06-14T16:43:10.976Z,1.52
2018-06-14T16:45:39.236Z,2.83
2018-06-14T16:48:07.500Z,1.75
2018-06-14T16:50:35.878Z,1.52
2018-06-14T16:53:04.196Z,1.80
2018-06-14T16:55:32.486Z,1.60
2018-06-14T16:58:00.874Z,1.60
2018-06-14T17:00:29.138Z,1.55
2018-06-14T17:02:57.375Z,2.05
2018-06-14T17:05:25.675Z,2.85
2018-06-14T17:07:53.977Z,1.90
2018-06-14T17:10:22.222Z,1.40
2018-06-14T17:12:50.465Z,2.92
2018-06-14T17:15:18.708Z,2.77
2018-06-14T17:17:46.941Z,1.45
2018-06-14T17:20:15.177Z,1.70
2018-06-14T17:22:43.448Z,1.40
2018-06-14T17:25:11.668Z,2.27
2018-06-14T17:27:39.935Z,2.22
2018-06-14T17:30:08.585Z,3.58
2018-06-14T17:32:36.778Z,1.82
2018-06-14T17:35:05.248Z,3.72
2018-06-14T17:37:33.596Z,3.10
2018-06-14T17:40:01.883Z,3.62
2018-06-14T17:42:30.315Z,3.20
2018-06-14T17:44:58.693Z,5.62
2018-06-14T17:47:27.001Z,6.62
2018-06-14T17:49:55.295Z,4.05
2018-06-14T17:52:23.608Z,3.95
2018-06-14T17:54:52.694Z,8.35
2018-06-14T17:57:20.997Z,5.45
2018-06-14T17:59:49.278Z,6.35
2018-06-14T18:02:17.566Z,7.22
2018-06-14T18:04:45.909Z,7.50
2018-06-14T18:07:14.140Z,6.15
2018-06-14T18:09:42.440Z,7.92
2018-06-14T18:12:10.654Z,9.35
2018-06-14T18:14:38.956Z,5.75
2018-06-14T18:17:07.231Z,8.48
2018-06-14T18:19:35.611Z,6.17
2018-06-14T18:22:03.937Z,6.30
2018-06-14T18:24:32.271Z,7.22
2018-06-14T18:27:00.582Z,5.67
2018-06-14T18:29:28.937Z,7.50
2018-06-14T18:31:57.208Z,8.18
2018-06-14T18:34:26.263Z,6.42
2018-06-14T18:36:54.635Z,7.75
2018-06-14T18:39:23.253Z,16.42
2018-06-14T18:41:51.531Z,13.32
2018-06-14T18:44:20.442Z,8.23
2018-06-14T18:46:48.717Z,9.93
2018-06-14T18:49:16.969Z,8.45
2018-06-14T18:51:45.237Z,7.62
2018-06-14T18:54:13.501Z,6.50
2018-06-14T18:56:41.862Z,7.42
2018-06-14T18:59:10.156Z,6.67
2018-06-14T19:01:38.483Z,5.95
2018-06-14T19:04:06.756Z,6.95
2018-06-14T19:06:35.048Z,5.85
2018-06-14T19:09:03.333Z,8.18
2018-06-14T19:11:31.564Z,5.70
2018-06-14T19:14:00.300Z,6.90
2018-06-14T19:16:28.581Z,5.95
2018-06-14T19:18:57.605Z,9.38
2018-06-14T19:21:25.887Z,6.28
2018-06-14T19:23:54.123Z,7.53
2018-06-14T19:26:22.581Z,6.20
2018-06-14T19:28:50.797Z,6.37
2018-06-14T19:31:19.057Z,6.12
2018-06-14T19:33:47.279Z,8.63
2018-06-14T19:36:15.646Z,7.58
2018-06-14T19:38:43.880Z,6.67
2018-06-14T19:41:12.211Z,6.00
2018-06-14T19:43:40.482Z,5.83
2018-06-14T19:46:08.775Z,5.10
2018-06-14T19:48:37.014Z,6.33
2018-06-14T19:51:05.280Z,6.12
2018-06-14T19:53:34.151Z,6.05
2018-06-14T19:56:02.502Z,7.15
2018-06-14T19:58:30.816Z,6.75
2018-06-14T20:00:59.128Z,6.22
2018-06-14T20:03:27.401Z,8.60
2018-06-14T20:05:55.671Z,5.10
2018-06-14T20:08:24.115Z,9.03
2018-06-14T20:10:52.479Z,5.78
2018-06-14T20:13:20.855Z,8.18
2018-06-14T20:15:49.291Z,5.10
2018-06-14T20:18:17.553Z,4.70
2018-06-14T20:20:45.868Z,7.35
2018-06-14T20:23:14.457Z,4.67
2018-06-14T20:25:42.809Z,4.80
2018-06-14T20:28:11.098Z,5.00
2018-06-14T20:30:39.388Z,5.65
2018-06-14T20:33:07.876Z,6.58
2018-06-14T20:35:36.208Z,5.08
2018-06-14T20:38:04.614Z,4.58
2018-06-14T20:40:32.896Z,6.05
2018-06-14T20:43:01.185Z,4.67
2018-06-14T20:45:29.462Z,6.85
2018-06-14T20:47:57.769Z,5.45
2018-06-14T20:50:26.108Z,4.20
2018-06-14T20:52:54.815Z,7.03
2018-06-14T20:55:23.208Z,4.35
2018-06-14T20:57:51.444Z,4.67
2018-06-14T21:00:19.703Z,4.47
2018-06-14T21:02:48.009Z,5.35
2018-06-14T21:05:16.285Z,4.72
2018-06-14T21:07:44.560Z,7.45
2018-06-14T21:10:12.827Z,6.75
2018-06-14T21:12:41.079Z,5.33
2018-06-14T21:15:09.340Z,5.80
2018-06-14T21:17:37.592Z,4.62
2018-06-14T21:20:05.873Z,6.20
2018-06-14T21:22:34.081Z,4.28
2018-06-14T21:25:02.354Z,5.92
2018-06-14T21:27:30.621Z,6.65
2018-06-14T21:29:58.873Z,4.33
2018-06-14T21:32:27.212Z,4.85
2018-06-14T21:34:57.277Z,5.97
2018-06-14T21:37:25.544Z,4.33
2018-06-14T21:39:53.830Z,6.17
2018-06-14T21:42:22.095Z,5.28
2018-06-14T21:44:50.370Z,5.60
2018-06-14T21:47:18.660Z,5.60
2018-06-14T21:49:46.957Z,6.87
2018-06-14T21:52:15.857Z,6.22
2018-06-14T21:54:44.106Z,4.58
2018-06-14T21:57:12.379Z,5.97
2018-06-14T21:59:40.707Z,5.08
2018-06-14T22:02:08.954Z,6.25
2018-06-14T22:04:37.254Z,4.95
2018-06-14T22:07:05.482Z,4.53
2018-06-14T22:09:33.765Z,5.85
2018-06-14T22:12:02.030Z,4.78
2018-06-14T22:14:30.323Z,7.22
2018-06-14T22:16:58.595Z,8.85
2018-06-14T22:19:26.872Z,5.25
2018-06-14T22:21:55.139Z,6.12
2018-06-14T22:24:23.444Z,7.25
2018-06-14T22:26:51.862Z,5.20
2018-06-14T22:29:21.246Z,5.25
2018-06-14T22:31:52.003Z,4.15
2018-06-14T22:34:31.756Z,6.08
2018-06-14T22:37:00.010Z,7.50
2018-06-14T22:39:28.289Z,7.83
2018-06-14T22:41:56.573Z,5.92
2018-06-14T22:44:24.820Z,5.45
2018-06-14T22:46:53.045Z,7.00
2018-06-14T22:49:21.255Z,5.55
2018-06-14T22:53:10.912Z,5.33
2018-06-14T22:55:39.264Z,4.90
2018-06-14T22:58:07.590Z,5.08
2018-06-14T23:01:48.249Z,4.97
2018-06-14T23:04:18.071Z,5.50
2018-06-14T23:06:46.828Z,5.83
2018-06-14T23:10:26.905Z,6.78
2018-06-14T23:12:55.230Z,5.65
2018-06-14T23:15:23.515Z,6.10
2018-06-14T23:17:52.956Z,8.98
2018-06-14T23:20:22.307Z,6.83
2018-06-14T23:22:51.795Z,7.42
2018-06-14T23:25:20.799Z,5.80
2018-06-14T23:27:49.068Z,7.55
2018-06-14T23:30:17.631Z,9.00
2018-06-14T23:32:46.031Z,6.78
2018-06-14T23:35:14.381Z,5.60
2018-06-14T23:37:42.836Z,6.75
2018-06-14T23:40:11.104Z,6.70
2018-06-14T23:42:39.351Z,7.17
2018-06-14T23:45:07.644Z,8.90
2018-06-14T23:47:35.879Z,6.33
2018-06-14T23:50:04.292Z,7.03
2018-06-14T23:52:32.496Z,9.43
2018-06-14T23:55:00.847Z,7.12
2018-06-14T23:57:29.151Z,6.05
2018-06-14T23:59:57.393Z,7.40
